Time;durP1;ratioP1;P1;durP2;ratioP2;P2;SDS_P1;SDS_P2;PMS_P1;PMS_P2;Temp;Humidity;BMP_temperature;BMP_pressure;BME280_temperature;BME280_humidity;BME280_pressure;Samples;Min_cycle;Max_cycle;Signal;HPM_P1;HPM_P2
2023/05/30 00:02:54;;;;;;;9.65;5.10;;;;;;;18.79;52.67;99726.34;7566427;33;41055;-75
2023/05/30 00:07:10;;;;;;;9.93;5.07;;;;;;;18.82;52.55;99734.81;7564270;33;38706;-75
2023/05/30 00:11:28;;;;;;;8.90;5.00;;;;;;;18.58;53.61;99732.53;7565181;33;37328;-75
2023/05/30 00:15:44;;;;;;;10.07;5.07;;;;;;;18.51;53.83;99735.78;7565675;33;40112;-74
2023/05/30 00:20:01;;;;;;;14.52;4.80;;;;;;;18.66;53.19;99728.97;7564528;33;40918;-74
2023/05/30 00:24:19;;;;;;;10.70;4.90;;;;;;;18.59;53.20;99723.09;7563986;32;38333;-75
2023/05/30 00:28:36;;;;;;;10.88;5.28;;;;;;;18.61;53.49;99729.13;7562653;33;37185;-74
2023/05/30 00:32:52;;;;;;;9.15;4.87;;;;;;;18.58;53.57;99751.88;7549027;33;38816;-75
2023/05/30 00:37:09;;;;;;;9.25;4.68;;;;;;;18.44;54.09;99741.00;7563073;33;40481;-75
2023/05/30 00:41:25;;;;;;;11.50;5.53;;;;;;;18.52;53.65;99728.31;7552976;33;37887;-75
2023/05/30 00:45:42;;;;;;;8.68;4.82;;;;;;;18.69;53.12;99733.00;7553530;33;37045;-74
2023/05/30 00:49:59;;;;;;;9.48;4.82;;;;;;;18.57;54.58;99730.91;7578275;33;39332;-74
2023/05/30 00:54:15;;;;;;;8.77;4.90;;;;;;;18.52;53.42;99731.91;7565180;33;40756;-75
2023/05/30 00:58:31;;;;;;;13.95;4.70;;;;;;;18.60;53.12;99727.50;7564887;33;37955;-74
2023/05/30 01:02:49;;;;;;;10.68;4.87;;;;;;;18.71;52.68;99720.50;7578290;33;36871;-75
2023/05/30 01:07:06;;;;;;;10.07;4.53;;;;;;;18.49;53.28;99720.69;7577750;33;39309;-75
2023/05/30 01:11:49;;;;;;;11.02;5.22;;;;;;;18.48;53.27;99721.84;7579340;33;39597;-75
2023/05/30 01:16:16;;;;;;;10.57;5.47;;;;;;;18.43;53.45;99722.00;7581801;33;38263;-76
2023/05/30 01:20:37;;;;;;;59.75;13.20;;;;;;;18.62;52.98;99719.69;7569175;33;37970;-77
2023/05/30 01:25:38;;;;;;;11.45;5.43;;;;;;;18.79;55.46;99715.28;7568875;33;39380;-75
2023/05/30 01:29:56;;;;;;;8.35;4.18;;;;;;;18.85;52.83;99722.28;7512104;33;40015;-74
2023/05/30 01:34:13;;;;;;;11.20;4.93;;;;;;;18.69;52.63;99720.00;7568068;33;38379;-74
2023/05/30 01:38:30;;;;;;;11.20;4.90;;;;;;;18.63;52.77;99715.81;7560539;33;38189;-74
2023/05/30 01:42:49;;;;;;;9.65;5.37;;;;;;;18.55;52.81;99711.91;7561049;33;39376;-75
2023/05/30 01:47:21;;;;;;;9.38;4.85;;;;;;;18.66;52.38;99704.13;7567914;33;40092;-74
2023/05/30 01:51:43;;;;;;;10.13;5.07;;;;;;;18.61;52.64;99708.97;7581295;33;37841;-74
2023/05/30 01:56:00;;;;;;;9.45;4.65;;;;;;;18.59;52.54;99709.28;7580651;33;37004;-73
2023/05/30 02:00:17;;;;;;;8.65;4.37;;;;;;;18.58;52.40;99707.69;7581262;33;38432;-74
2023/05/30 02:04:33;;;;;;;12.27;4.55;;;;;;;18.54;52.51;99695.66;7580339;33;41262;-74
2023/05/30 02:08:50;;;;;;;11.73;4.90;;;;;;;18.44;53.07;99707.88;7580532;33;38464;-75
2023/05/30 02:13:06;;;;;;;10.25;4.82;;;;;;;18.40;52.93;99709.66;7580912;33;37255;-74
2023/05/30 02:17:23;;;;;;;12.23;4.95;;;;;;;18.25;53.42;99708.22;7567496;33;39656;-74
2023/05/30 02:21:40;;;;;;;9.50;4.65;;;;;;;18.22;53.59;99706.09;7580592;33;40776;-74
2023/05/30 02:25:56;;;;;;;8.93;4.90;;;;;;;18.33;53.20;99712.94;7579305;33;37897;-74
2023/05/30 02:30:13;;;;;;;9.30;4.53;;;;;;;18.44;52.98;99712.56;7580797;33;37953;-74
2023/05/30 02:34:29;;;;;;;10.75;4.97;;;;;;;18.29;53.48;99711.13;7580631;33;39310;-74
2023/05/30 02:38:46;;;;;;;11.57;5.07;;;;;;;18.24;53.92;99714.84;7569799;33;41269;-74
2023/05/30 02:43:02;;;;;;;10.77;5.00;;;;;;;18.30;53.74;99708.06;7554935;33;37845;-74
2023/05/30 02:47:31;;;;;;;9.20;4.70;;;;;;;18.27;53.89;99707.91;7573311;33;38331;-74
2023/05/30 02:51:48;;;;;;;10.27;5.10;;;;;;;18.14;54.26;99713.25;7580659;33;39886;-74
2023/05/30 02:56:05;;;;;;;12.48;5.55;;;;;;;18.26;53.86;99701.53;7580244;33;40837;-74
2023/05/30 03:00:21;;;;;;;10.75;4.95;;;;;;;18.33;53.59;99696.37;7580183;33;38683;-74
2023/05/30 03:04:37;;;;;;;10.45;5.12;;;;;;;18.50;52.86;99697.47;7567246;33;37162;-75
2023/05/30 03:08:59;;;;;;;11.70;5.30;;;;;;;18.51;52.65;99704.63;7580429;33;39102;-75
2023/05/30 03:13:15;;;;;;;8.93;4.97;;;;;;;18.48;52.62;99700.56;7580397;33;40138;-75
2023/05/30 03:17:32;;;;;;;10.90;5.10;;;;;;;18.50;52.49;99705.75;7580237;33;37682;-74
2023/05/30 03:21:49;;;;;;;11.35;5.22;;;;;;;18.36;53.16;99703.16;7580223;33;37959;-74
2023/05/30 03:26:06;;;;;;;10.27;5.72;;;;;;;18.38;53.01;99701.72;7580236;33;39096;-74
2023/05/30 03:30:26;;;;;;;11.02;5.18;;;;;;;18.24;53.58;99703.81;7580188;33;40066;-75
2023/05/30 03:34:45;;;;;;;8.23;4.70;;;;;;;18.40;52.61;99709.66;7578947;33;38833;-75
2023/05/30 03:39:01;;;;;;;10.00;5.53;;;;;;;18.21;53.66;99723.78;7580062;33;36190;-75
2023/05/30 03:43:17;;;;;;;12.10;5.28;;;;;;;18.55;52.75;99722.94;7579806;33;39318;-75
2023/05/30 03:47:33;;;;;;;9.73;5.12;;;;;;;18.60;52.59;99727.50;7579791;33;41270;-75
2023/05/30 03:51:50;;;;;;;9.13;4.68;;;;;;;18.34;53.49;99736.59;7579788;33;37827;-74
2023/05/30 03:56:06;;;;;;;9.82;5.03;;;;;;;18.25;53.95;99749.59;7579494;33;37028;-74
2023/05/30 04:00:22;;;;;;;10.70;5.32;;;;;;;18.15;54.95;99738.88;7579806;33;39399;-75
2023/05/30 04:04:39;;;;;;;8.65;4.68;;;;;;;18.09;55.44;99751.19;7579515;33;40948;-76
2023/05/30 04:08:55;;;;;;;11.75;5.30;;;;;;;18.26;55.06;99740.16;7579407;33;39567;-75
2023/05/30 04:13:12;;;;;;;9.27;5.18;;;;;;;18.28;55.46;99743.44;7579497;33;37712;-75
2023/05/30 04:17:30;;;;;;;12.15;5.68;;;;;;;18.24;56.22;99747.16;7579387;33;39362;-75
2023/05/30 04:21:46;;;;;;;11.40;5.93;;;;;;;18.21;56.44;99759.66;7579257;33;39958;-75
2023/05/30 04:26:04;;;;;;;9.77;5.32;;;;;;;18.39;54.39;99760.47;7579015;33;37869;-74
2023/05/30 04:30:20;;;;;;;12.68;5.20;;;;;;;18.46;54.88;99765.50;7578990;33;37253;-75
2023/05/30 04:34:38;;;;;;;12.02;5.60;;;;;;;18.51;55.83;99762.59;7578913;33;39517;-75
2023/05/30 04:38:55;;;;;;;11.82;5.43;;;;;;;18.58;55.78;99769.22;7578911;33;40024;-74
2023/05/30 04:43:11;;;;;;;9.25;5.00;;;;;;;18.58;56.39;99771.19;7578625;33;38584;-74
2023/05/30 04:47:28;;;;;;;10.45;5.28;;;;;;;18.49;55.78;99775.88;7580728;33;37914;-75
2023/05/30 04:51:45;;;;;;;11.93;4.95;;;;;;;18.65;55.17;99776.22;7581969;33;40254;-75
2023/05/30 04:56:01;;;;;;;13.27;5.60;;;;;;;18.46;56.36;99771.84;7581621;33;40826;-74
2023/05/30 05:00:19;;;;;;;11.20;5.28;;;;;;;18.77;55.91;99763.34;7581809;33;38805;-70
2023/05/30 05:04:36;;;;;;;13.13;5.70;;;;;;;19.17;54.89;99770.63;7581699;33;37170;-71
2023/05/30 05:08:52;;;;;;;11.27;5.40;;;;;;;18.76;56.46;99774.72;7581689;33;40130;-70
2023/05/30 05:13:08;;;;;;;12.80;5.85;;;;;;;18.90;55.92;99769.06;7581524;33;40780;-71
2023/05/30 05:17:25;;;;;;;10.35;5.32;;;;;;;18.76;55.91;99781.09;7581539;33;38103;-70
2023/05/30 05:21:41;;;;;;;11.00;5.53;;;;;;;19.17;55.07;99772.56;7578596;32;37934;-69
2023/05/30 05:25:57;;;;;;;10.27;5.40;;;;;;;19.27;55.29;99770.25;7580776;33;39840;-70
2023/05/30 05:30:13;;;;;;;12.05;5.10;;;;;;;19.59;54.75;99781.84;7557822;33;40156;-69
2023/05/30 05:34:30;;;;;;;9.45;5.40;;;;;;;19.44;55.46;99783.19;7580072;33;37646;-71
2023/05/30 05:38:46;;;;;;;9.98;5.03;;;;;;;19.77;54.61;99779.81;7580146;33;37623;-69
2023/05/30 05:43:02;;;;;;;11.93;5.35;;;;;;;20.05;54.43;99787.63;7580631;33;39389;-74
2023/05/30 05:47:18;;;;;;;10.13;5.25;;;;;;;20.03;54.89;99785.19;7581253;33;40081;-74
2023/05/30 05:51:36;;;;;;;13.27;5.72;;;;;;;19.92;55.34;99785.91;7581052;33;37889;-73
2023/05/30 05:55:53;;;;;;;9.65;5.15;;;;;;;19.81;56.10;99791.03;7581144;33;37439;-74
2023/05/30 06:00:10;;;;;;;8.88;5.05;;;;;;;19.91;55.75;99798.94;7580349;33;39355;-74
2023/05/30 06:04:26;;;;;;;15.82;5.68;;;;;;;19.88;55.78;99794.87;7580981;33;40594;-74
2023/05/30 06:08:45;;;;;;;11.63;5.78;;;;;;;20.50;54.73;99802.78;7580840;33;38609;-72
2023/05/30 06:13:01;;;;;;;11.95;5.28;;;;;;;20.55;53.88;99797.84;7580594;33;37981;-71
2023/05/30 06:17:17;;;;;;;11.77;5.12;;;;;;;20.40;54.45;99806.75;7580893;33;40136;-71
2023/05/30 06:21:34;;;;;;;11.07;4.85;;;;;;;20.56;54.93;99810.53;7579545;33;40658;-73
2023/05/30 06:25:50;;;;;;;13.48;5.60;;;;;;;20.59;53.45;99804.34;7580639;33;37873;-74
2023/05/30 06:30:07;;;;;;;17.35;5.30;;;;;;;20.91;52.78;99813.03;7580846;33;37992;-74
2023/05/30 06:34:23;;;;;;;12.75;6.10;;;;;;;21.07;51.75;99813.19;7580504;33;39415;-73
2023/05/30 06:38:39;;;;;;;12.02;4.95;;;;;;;20.40;54.87;99823.34;7580289;33;40750;-72
2023/05/30 06:42:55;;;;;;;11.20;5.18;;;;;;;20.37;54.01;99818.50;7580454;33;38687;-73
2023/05/30 06:47:11;;;;;;;13.35;5.80;;;;;;;20.61;53.81;99824.19;7580502;33;37235;-72
2023/05/30 06:51:28;;;;;;;10.27;5.32;;;;;;;21.05;53.35;99820.25;7579157;33;39182;-69
2023/05/30 06:55:44;;;;;;;17.67;5.45;;;;;;;21.30;53.02;99821.09;7579800;33;39645;-69
2023/05/30 07:00:00;;;;;;;14.45;5.62;;;;;;;21.33;53.63;99820.41;7575288;33;38749;-70
2023/05/30 07:04:16;;;;;;;11.05;5.80;;;;;;;21.55;51.21;99819.22;7578500;33;37229;-69
2023/05/30 07:08:32;;;;;;;9.70;5.07;;;;;;;21.56;52.79;99818.06;7578379;32;40163;-66
2023/05/30 07:12:49;;;;;;;18.95;5.43;;;;;;;21.80;52.31;99819.22;7578787;33;40777;-67
2023/05/30 07:17:07;;;;;;;12.77;5.22;;;;;;;22.10;51.14;99803.13;7579148;33;38668;-67
2023/05/30 07:21:23;;;;;;;9.18;4.35;;;;;;;22.62;47.23;99796.78;7577866;33;38168;-68
2023/05/30 07:25:39;;;;;;;9.05;4.80;;;;;;;23.27;45.14;99794.97;7579333;33;39438;-68
2023/05/30 07:29:55;;;;;;;10.27;5.12;;;;;;;23.58;45.18;99802.56;7577888;33;40831;-68
2023/05/30 07:34:12;;;;;;;17.48;4.87;;;;;;;23.60;44.92;99795.44;7578945;33;37501;-68
2023/05/30 07:38:28;;;;;;;13.18;5.37;;;;;;;23.74;42.65;99794.19;7577945;33;36818;-67
2023/05/30 07:42:45;;;;;;;18.30;5.15;;;;;;;24.15;42.50;99803.13;7577283;33;39363;-69
2023/05/30 07:47:02;;;;;;;12.68;5.45;;;;;;;24.42;41.06;99797.72;7569100;33;39500;-68
2023/05/30 07:51:20;;;;;;;10.50;5.07;;;;;;;24.61;39.90;99789.44;7562010;33;38718;-67
2023/05/30 07:55:36;;;;;;;11.27;4.80;;;;;;;24.56;42.42;99800.88;7578493;33;37095;-67
2023/05/30 07:59:52;;;;;;;13.88;5.55;;;;;;;24.71;39.97;99794.38;7577625;33;39473;-67
2023/05/30 08:04:08;;;;;;;10.65;4.22;;;;;;;24.62;38.50;99799.38;7576900;33;40026;-66
2023/05/30 08:08:25;;;;;;;9.88;4.78;;;;;;;25.12;40.01;99800.34;7577665;33;38907;-66
2023/05/30 08:12:41;;;;;;;9.68;4.93;;;;;;;24.97;39.68;99798.47;7577054;32;38327;-68
2023/05/30 08:16:58;;;;;;;9.77;4.82;;;;;;;25.40;38.60;99799.28;7580843;32;40121;-70
2023/05/30 08:21:14;;;;;;;10.70;4.68;;;;;;;25.88;35.59;99800.88;7576399;33;39886;-70
2023/05/30 08:25:35;;;;;;;11.10;4.62;;;;;;;25.87;35.83;99800.03;7578313;33;38069;-70
2023/05/30 08:29:52;;;;;;;11.40;4.57;;;;;;;26.16;36.36;99800.50;7578230;33;37133;-69
2023/05/30 08:34:08;;;;;;;8.05;4.05;;;;;;;26.07;35.80;99797.19;7577582;33;39159;-70
2023/05/30 08:38:24;;;;;;;14.45;4.57;;;;;;;26.35;35.72;99791.19;7578209;33;39894;-70
2023/05/30 08:42:41;;;;;;;9.30;4.57;;;;;;;26.42;34.66;99791.28;7577844;33;38703;-70
2023/05/30 08:46:57;;;;;;;9.13;4.65;;;;;;;26.71;35.50;99797.25;7564561;33;37277;-70
2023/05/30 08:51:15;;;;;;;9.35;4.53;;;;;;;26.93;36.33;99799.12;7578006;33;39872;-70
2023/05/30 08:55:34;;;;;;;9.23;4.12;;;;;;;27.27;35.15;99793.47;7577637;33;39894;-70
2023/05/30 08:59:51;;;;;;;9.65;4.80;;;;;;;26.74;34.69;99802.09;7577327;33;38780;-69
2023/05/30 09:04:08;;;;;;;9.93;4.78;;;;;;;27.02;34.41;99801.59;7564332;33;38323;-70
2023/05/30 09:08:26;;;;;;;8.27;4.50;;;;;;;27.06;35.36;99807.22;7564081;33;39423;-70
2023/05/30 09:12:43;;;;;;;9.20;4.62;;;;;;;27.11;34.26;99798.50;7564226;33;41780;-69
2023/05/30 09:16:59;;;;;;;9.23;4.57;;;;;;;26.97;33.39;99816.75;7564249;33;38650;-70
2023/05/30 09:21:15;;;;;;;11.43;4.22;;;;;;;27.03;34.02;99806.03;7577464;33;37124;-84
2023/05/30 09:25:45;;;;;;;10.02;4.50;;;;;;;27.44;35.71;99811.66;7563397;33;39244;-78
2023/05/30 09:30:10;;;;;;;11.32;4.87;;;;;;;27.28;32.69;99813.88;7575209;33;40720;-77
2023/05/30 09:34:26;;;;;;;11.00;4.97;;;;;;;27.49;33.90;99814.09;7578910;33;36864;-83
2023/05/30 09:38:53;;;;;;;9.13;4.60;;;;;;;27.52;33.14;99815.31;7581350;33;37310;-76
2023/05/30 09:43:09;;;;;;;9.13;4.78;;;;;;;27.05;32.27;99817.63;7576159;33;38648;-77
2023/05/30 09:47:26;;;;;;;9.65;4.70;;;;;;;27.10;34.60;99808.09;7574090;33;41623;-79
2023/05/30 09:51:43;;;;;;;10.35;4.37;;;;;;;26.92;33.10;99805.09;7578354;33;37905;-78
2023/05/30 09:56:01;;;;;;;14.77;5.40;;;;;;;26.97;32.60;99815.94;7567203;33;37152;-76
2023/05/30 10:00:23;;;;;;;12.52;5.10;;;;;;;26.91;33.12;99811.88;7563044;33;39584;-77
2023/05/30 10:04:41;;;;;;;9.85;5.00;;;;;;;27.25;32.30;99811.81;7542414;33;40816;-76
2023/05/30 10:08:57;;;;;;;11.43;4.93;;;;;;;27.09;33.40;99809.28;7542125;33;38124;-78
2023/05/30 10:13:14;;;;;;;9.13;4.78;;;;;;;26.51;33.11;99821.72;7555306;33;37192;-78
2023/05/30 10:17:32;;;;;;;8.18;4.30;;;;;;;26.95;35.59;99819.13;7554165;33;39096;-78
2023/05/30 10:21:50;;;;;;;15.70;4.68;;;;;;;27.05;33.64;99811.25;7542275;33;40874;-76
2023/05/30 10:26:12;;;;;;;7.35;4.12;;;;;;;27.75;33.78;99805.91;7542388;33;37882;-77
2023/05/30 10:30:30;;;;;;;13.57;5.25;;;;;;;27.80;31.32;99805.53;7542306;33;37875;-77
2023/05/30 10:34:56;;;;;;;10.93;4.90;;;;;;;28.20;32.98;99801.03;7542054;33;38616;-77
2023/05/30 10:39:21;;;;;;;11.43;4.97;;;;;;;28.19;30.57;99793.81;7542698;33;40837;-77
2023/05/30 10:44:06;;;;;;;10.30;4.55;;;;;;;27.84;31.46;99789.59;7554588;33;37753;-86
2023/05/30 10:48:29;;;;;;;13.75;4.90;;;;;;;28.41;33.33;99783.53;7554836;33;37214;-82
2023/05/30 10:52:47;;;;;;;10.48;4.22;;;;;;;28.66;30.85;99786.47;7554901;33;39205;-86
2023/05/30 10:57:27;;;;;;;11.32;4.68;;;;;;;27.95;29.51;99782.06;7548689;33;39882;-79
2023/05/30 11:02:04;;;;;;;9.07;4.30;;;;;;;27.84;33.73;99790.38;7580093;33;38760;-77
2023/05/30 11:06:21;;;;;;;8.93;4.15;;;;;;;26.85;31.21;99777.03;7546955;33;35889;-73
2023/05/30 11:10:38;;;;;;;11.63;4.80;;;;;;;26.68;32.41;99786.84;7571497;33;40026;-78
2023/05/30 11:14:57;;;;;;;12.77;4.47;;;;;;;26.72;32.44;99790.50;7580266;33;39022;-76
2023/05/30 11:19:14;;;;;;;11.30;4.65;;;;;;;26.36;33.34;99784.44;7579854;33;38548;-77
2023/05/30 11:23:31;;;;;;;11.02;4.40;;;;;;;26.59;34.86;99781.50;7580190;33;37857;-75
2023/05/30 11:28:04;;;;;;;9.25;4.95;;;;;;;26.43;34.30;99781.72;7579895;32;38363;-76
2023/05/30 11:32:28;;;;;;;12.95;4.70;;;;;;;25.80;34.82;99781.22;7580100;33;40127;-77
2023/05/30 11:36:46;;;;;;;9.45;4.53;;;;;;;25.95;34.02;99778.66;7579796;33;38668;-77
2023/05/30 11:41:06;;;;;;;8.65;4.70;;;;;;;26.50;35.21;99776.22;7566193;33;37231;-77
2023/05/30 11:45:30;;;;;;;11.55;4.47;;;;;;;27.15;32.70;99772.16;7577716;33;39893;-77
2023/05/30 11:49:47;;;;;;;10.07;4.80;;;;;;;27.11;33.17;99764.91;7570773;33;39992;-76
2023/05/30 11:54:07;;;;;;;13.60;4.75;;;;;;;27.38;32.59;99762.00;7560336;33;38542;-78
2023/05/30 11:58:26;;;;;;;10.50;4.35;;;;;;;27.45;32.77;99756.47;7552831;33;36983;-77
2023/05/30 12:02:44;;;;;;;9.02;4.55;;;;;;;27.63;31.56;99751.81;7548092;33;38276;-77
2023/05/30 12:07:03;;;;;;;11.00;4.68;;;;;;;27.73;34.34;99750.28;7551529;33;39994;-77
2023/05/30 12:11:21;;;;;;;11.43;4.53;;;;;;;27.78;33.70;99746.31;7564918;33;37978;-77
2023/05/30 12:15:38;;;;;;;11.98;5.15;;;;;;;27.81;32.81;99751.94;7553301;33;37154;-76
2023/05/30 12:20:00;;;;;;;9.40;5.22;;;;;;;27.61;33.25;99747.78;7564992;33;39505;-77
2023/05/30 12:24:23;;;;;;;12.95;5.55;;;;;;;27.16;34.11;99747.78;7579309;33;40955;-76
2023/05/30 12:28:47;;;;;;;11.80;5.10;;;;;;;26.83;35.13;99743.88;7579193;33;37775;-76
2023/05/30 12:33:19;;;;;;;14.57;5.90;;;;;;;26.14;35.83;99753.38;7572727;33;37712;-76
2023/05/30 12:37:38;;;;;;;10.02;5.47;;;;;;;25.96;37.33;99746.78;7553280;33;40186;-76
2023/05/30 12:41:55;;;;;;;11.70;5.80;;;;;;;25.89;37.53;99753.03;7553125;33;40621;-76
2023/05/30 12:46:14;;;;;;;12.88;5.37;;;;;;;26.26;37.49;99745.97;7540133;33;38030;-76
2023/05/30 12:50:31;;;;;;;12.23;5.12;;;;;;;25.71;37.92;99760.31;7553010;33;37255;-76
2023/05/30 12:54:48;;;;;;;7.90;4.00;;;;;;;25.71;40.02;99783.44;7552760;33;40098;-75
2023/05/30 12:59:05;;;;;;;12.77;5.10;;;;;;;25.22;41.55;99798.16;7552427;33;40745;-75
2023/05/30 13:03:23;;;;;;;9.43;3.90;;;;;;;24.60;41.47;99796.16;7552579;33;37413;-76
2023/05/30 13:07:42;;;;;;;13.57;4.28;;;;;;;23.98;38.92;99805.13;7554202;33;36419;-75
2023/05/30 13:11:58;;;;;;;14.02;4.85;;;;;;;23.38;39.87;99826.66;7556011;33;39848;-76
2023/05/30 13:16:16;;;;;;;10.00;4.40;;;;;;;22.78;42.24;99855.19;7578979;33;38961;-76
2023/05/30 13:20:35;;;;;;;12.32;5.00;;;;;;;22.43;42.52;99852.16;7561648;33;37336;-76
2023/05/30 13:24:51;;;;;;;9.75;4.97;;;;;;;22.31;44.95;99853.78;7555931;33;37120;-76
2023/05/30 13:29:09;;;;;;;10.80;5.22;;;;;;;22.24;47.73;99849.97;7568839;33;40312;-76
2023/05/30 13:33:25;;;;;;;12.35;5.32;;;;;;;22.18;50.52;99843.03;7581393;33;40783;-77
2023/05/30 13:37:42;;;;;;;14.43;5.62;;;;;;;22.15;52.54;99827.88;7581307;33;38691;-77
2023/05/30 13:42:01;;;;;;;14.13;5.32;;;;;;;21.93;51.71;99837.50;7581465;33;36621;-77
2023/05/30 13:46:19;;;;;;;18.12;5.35;;;;;;;21.71;52.79;99836.81;7566816;33;38300;-76
2023/05/30 13:50:37;;;;;;;11.15;5.45;;;;;;;21.65;53.94;99832.63;7555630;33;39296;-76
2023/05/30 13:54:56;;;;;;;11.07;5.00;;;;;;;21.80;50.42;99822.81;7556086;33;37139;-76
2023/05/30 13:59:13;;;;;;;11.45;4.82;;;;;;;21.86;52.13;99828.94;7503320;33;2026753;-76
2023/05/30 14:03:30;;;;;;;10.27;4.70;;;;;;;21.79;55.85;99842.59;7580910;33;39300;-76
2023/05/30 14:07:50;;;;;;;11.90;5.30;;;;;;;21.80;53.44;99860.84;7562883;33;40100;-76
2023/05/30 14:12:07;;;;;;;10.07;4.87;;;;;;;21.92;48.87;99861.66;7555283;33;37622;-76
2023/05/30 14:16:24;;;;;;;10.20;5.30;;;;;;;21.43;51.99;99853.25;7555211;33;37850;-76
2023/05/30 14:20:41;;;;;;;10.80;5.20;;;;;;;21.43;53.21;99855.22;7569849;33;39385;-76
2023/05/30 14:25:00;;;;;;;11.48;5.25;;;;;;;21.98;52.13;99867.00;7580958;33;39978;-76
2023/05/30 14:29:16;;;;;;;9.73;5.15;;;;;;;21.89;51.40;99876.22;7580695;33;37899;-76
2023/05/30 14:33:32;;;;;;;10.25;5.15;;;;;;;21.93;51.33;99884.69;7580764;33;38051;-76
2023/05/30 14:37:49;;;;;;;9.15;5.28;;;;;;;21.35;50.35;99885.47;7580749;33;40287;-77
2023/05/30 14:42:06;;;;;;;11.35;4.87;;;;;;;21.65;48.48;99901.97;7580683;33;39895;-76
2023/05/30 14:46:22;;;;;;;9.90;5.35;;;;;;;21.38;48.92;99906.97;7580619;33;38218;-76
2023/05/30 14:50:39;;;;;;;9.85;4.90;;;;;;;21.59;50.74;99906.12;7580675;33;37951;-76
2023/05/30 14:54:55;;;;;;;9.23;4.65;;;;;;;21.87;50.17;99899.91;7580648;33;39307;-76
2023/05/30 14:59:11;;;;;;;10.65;4.95;;;;;;;22.29;44.87;99908.06;7580445;33;39995;-76
2023/05/30 15:03:28;;;;;;;9.75;4.90;;;;;;;22.53;46.65;99904.47;7578067;33;37635;-76
2023/05/30 15:07:44;;;;;;;9.65;5.15;;;;;;;23.17;45.42;99888.88;7559528;33;37084;-76
2023/05/30 15:12:00;;;;;;;10.68;4.70;;;;;;;23.32;43.70;99889.28;7580343;33;39557;-76
2023/05/30 15:16:17;;;;;;;9.00;4.37;;;;;;;23.52;43.65;99887.44;7554802;33;39948;-77
2023/05/30 15:20:33;;;;;;;8.43;4.85;;;;;;;24.17;41.21;99873.19;7554625;33;37911;-76
2023/05/30 15:24:49;;;;;;;9.85;4.25;;;;;;;24.25;42.34;99885.28;7564052;33;37917;-77
2023/05/30 15:29:06;;;;;;;10.18;4.45;;;;;;;23.18;41.87;99881.34;7554993;33;39142;-77
2023/05/30 15:33:22;;;;;;;10.48;4.60;;;;;;;23.66;42.32;99875.88;7572294;33;39652;-76
2023/05/30 15:37:38;;;;;;;10.52;4.18;;;;;;;23.75;42.17;99862.56;7579989;33;38599;-76
2023/05/30 15:41:54;;;;;;;10.43;4.47;;;;;;;23.68;40.82;99854.06;7566799;33;37953;-76
2023/05/30 15:46:12;;;;;;;12.27;5.10;;;;;;;23.83;40.18;99856.06;7553696;33;40159;-76
2023/05/30 15:50:28;;;;;;;9.90;4.53;;;;;;;23.42;43.18;99850.63;7568050;33;40145;-76
2023/05/30 15:54:45;;;;;;;10.05;4.80;;;;;;;23.02;43.82;99851.50;7579189;33;38018;-76
2023/05/30 15:59:01;;;;;;;8.52;4.15;;;;;;;23.21;42.56;99847.28;7578899;33;37368;-77
2023/05/30 16:03:17;;;;;;;7.82;4.05;;;;;;;23.31;44.86;99838.41;7574510;33;39298;-77
2023/05/30 16:07:34;;;;;;;8.52;3.67;;;;;;;23.35;45.62;99816.25;7577283;33;39887;-76
2023/05/30 16:11:50;;;;;;;8.63;4.05;;;;;;;23.54;43.17;99810.81;7562514;33;38930;-76
2023/05/30 16:16:07;;;;;;;7.70;3.80;;;;;;;23.79;43.39;99819.75;7562195;33;37032;-77
2023/05/30 16:20:23;;;;;;;7.82;3.97;;;;;;;23.86;41.75;99812.78;7555859;33;40056;-77
2023/05/30 16:24:39;;;;;;;6.70;3.58;;;;;;;23.78;42.26;99812.59;7569564;33;41291;-76
2023/05/30 16:28:56;;;;;;;7.30;4.07;;;;;;;24.22;40.62;99800.50;7573246;33;38801;-77
2023/05/30 16:33:12;;;;;;;9.35;3.97;;;;;;;24.95;40.91;99800.81;7567896;33;37787;-77
2023/05/30 16:37:29;;;;;;;9.73;3.87;;;;;;;25.15;40.76;99803.56;7553147;33;39431;-77
2023/05/30 16:41:48;;;;;;;8.30;3.85;;;;;;;25.41;41.18;99805.69;7553066;33;39742;-77
2023/05/30 16:46:04;;;;;;;7.18;3.70;;;;;;;25.55;40.84;99802.34;7556044;33;37553;-77
2023/05/30 16:50:21;;;;;;;7.90;3.40;;;;;;;25.20;40.50;99806.88;7529041;33;37859;-76
2023/05/30 16:54:37;;;;;;;7.50;3.40;;;;;;;25.22;40.68;99806.53;7530460;33;40045;-77
2023/05/30 16:58:54;;;;;;;8.82;4.05;;;;;;;24.96;40.62;99794.09;7530056;33;40035;-76
2023/05/30 17:03:11;;;;;;;8.60;4.50;;;;;;;24.28;42.41;99801.81;7529797;33;37998;-77
2023/05/30 17:07:27;;;;;;;8.38;4.12;;;;;;;24.04;44.29;99818.78;7530519;33;37058;-76
2023/05/30 17:11:43;;;;;;;11.63;3.90;;;;;;;23.45;44.21;99826.84;7529673;33;39307;-76
2023/05/30 17:16:00;;;;;;;9.32;4.40;;;;;;;23.11;45.61;99820.00;7529994;33;40071;-76
2023/05/30 17:20:16;;;;;;;12.10;4.65;;;;;;;23.53;44.48;99837.00;7530117;33;37889;-76
2023/05/30 17:24:32;;;;;;;9.45;4.10;;;;;;;23.76;45.01;99847.50;7529681;33;37416;-76
2023/05/30 17:28:49;;;;;;;8.93;4.12;;;;;;;23.11;45.79;99851.41;7531723;33;40129;-76
2023/05/30 17:33:07;;;;;;;11.02;4.97;;;;;;;22.61;47.70;99855.47;7538313;33;40012;-77
2023/05/30 17:37:23;;;;;;;11.00;4.22;;;;;;;23.30;45.95;99847.09;7552921;33;38675;-77
2023/05/30 17:41:39;;;;;;;9.45;4.20;;;;;;;23.31;46.58;99849.53;7527880;33;37213;-77
2023/05/30 17:45:56;;;;;;;9.48;4.57;;;;;;;23.08;46.25;99868.78;7530160;33;40132;-78
2023/05/30 17:50:12;;;;;;;8.90;4.30;;;;;;;22.88;47.25;99871.34;7532019;33;40048;-74
2023/05/30 17:54:28;;;;;;;9.10;4.55;;;;;;;22.96;47.61;99863.25;7529101;33;38440;-80
2023/05/30 17:58:45;;;;;;;10.15;4.30;;;;;;;22.79;48.40;99872.69;7528581;33;37853;-77
2023/05/30 18:03:01;;;;;;;11.12;4.68;;;;;;;22.64;49.18;99882.56;7529910;33;40160;-77
2023/05/30 18:07:19;;;;;;;9.88;4.78;;;;;;;22.49;49.51;99893.25;7531905;33;40679;-77
2023/05/30 18:11:35;;;;;;;9.95;4.62;;;;;;;22.26;50.88;99905.97;7555363;33;37967;-78
2023/05/30 18:15:51;;;;;;;12.55;5.00;;;;;;;21.99;51.27;99908.28;7536291;33;37204;-77
2023/05/30 18:20:08;;;;;;;9.73;4.65;;;;;;;22.06;50.31;99913.22;7555357;33;39150;-77
2023/05/30 18:24:25;;;;;;;10.40;4.93;;;;;;;22.01;49.29;99917.06;7555238;33;40873;-77
2023/05/30 18:28:42;;;;;;;7.80;4.32;;;;;;;21.86;48.82;99921.31;7553422;33;38060;-77
2023/05/30 18:32:58;;;;;;;10.93;4.87;;;;;;;21.70;49.10;99923.97;7531225;33;37098;-77
2023/05/30 18:37:15;;;;;;;8.20;4.18;;;;;;;21.51;50.44;99929.22;7540383;33;39298;-77
2023/05/30 18:41:32;;;;;;;9.95;4.20;;;;;;;21.26;51.87;99940.19;7538859;33;39762;-77
2023/05/30 18:45:48;;;;;;;10.15;4.82;;;;;;;21.16;52.24;99944.22;7546675;33;38395;-78
2023/05/30 18:50:06;;;;;;;12.55;4.72;;;;;;;21.04;52.88;99957.19;7545281;33;37514;-78
2023/05/30 18:54:23;;;;;;;10.75;4.82;;;;;;;21.11;53.12;99957.44;7549177;33;41016;-78
2023/05/30 18:58:41;;;;;;;11.40;4.60;;;;;;;20.80;53.98;99953.13;7546624;33;39200;-78
2023/05/30 19:02:58;;;;;;;13.32;5.62;;;;;;;20.85;53.92;99961.22;7544500;33;38581;-77
2023/05/30 19:07:15;;;;;;;10.80;4.62;;;;;;;20.74;54.38;99971.88;7545039;33;38006;-77
2023/05/30 19:11:32;;;;;;;9.05;5.07;;;;;;;20.64;54.99;99980.59;7543049;33;39628;-78
2023/05/30 19:15:49;;;;;;;10.75;5.40;;;;;;;20.69;54.82;99983.16;7548803;33;40587;-77
2023/05/30 19:20:06;;;;;;;14.68;5.12;;;;;;;20.57;55.21;99978.31;7549277;33;37863;-79
2023/05/30 19:24:24;;;;;;;9.65;5.20;;;;;;;20.52;55.13;99977.69;7548568;33;37092;-78
2023/05/30 19:28:40;;;;;;;9.75;4.80;;;;;;;20.59;54.75;99987.13;7549329;33;39059;-77
2023/05/30 19:32:57;;;;;;;8.40;4.47;;;;;;;20.34;55.53;99980.56;7553710;33;39986;-76
2023/05/30 19:37:13;;;;;;;11.18;4.80;;;;;;;20.22;55.95;99989.56;7553582;33;37945;-78
2023/05/30 19:41:29;;;;;;;10.25;4.70;;;;;;;20.15;56.15;99989.28;7548876;33;37092;-78
2023/05/30 19:45:46;;;;;;;10.20;4.72;;;;;;;19.98;57.04;100000.41;7547240;33;39197;-79
2023/05/30 19:50:03;;;;;;;9.32;4.65;;;;;;;20.09;56.29;100004.41;7545787;33;40782;-79
2023/05/30 19:54:20;;;;;;;10.95;4.40;;;;;;;20.03;56.67;100003.00;7544094;33;37777;-79
2023/05/30 19:58:36;;;;;;;10.40;4.53;;;;;;;20.12;56.31;99992.69;7544243;33;37092;-77
2023/05/30 20:02:52;;;;;;;8.43;4.57;;;;;;;20.12;56.50;99989.12;7546359;33;39157;-78
2023/05/30 20:07:10;;;;;;;10.40;4.95;;;;;;;19.94;56.80;99993.87;7545758;33;39988;-75